sensor_id;sensor_type;location;lat;lon;timestamp;P1;durP1;ratioP1;P2;durP2;ratioP2
75303;SDS011;64042;50.916;6.988;2022-12-07T00:02:22;6.53;;;4.20;;
75303;SDS011;64042;50.916;6.988;2022-12-07T00:04:48;5.20;;;4.00;;
75303;SDS011;64042;50.916;6.988;2022-12-07T00:07:14;5.07;;;4.18;;
75303;SDS011;64042;50.916;6.988;2022-12-07T00:09:39;5.90;;;4.50;;
75303;SDS011;64042;50.916;6.988;2022-12-07T00:12:06;5.45;;;3.80;;
75303;SDS011;64042;50.916;6.988;2022-12-07T00:14:31;5.77;;;4.37;;
75303;SDS011;64042;50.916;6.988;2022-12-07T00:16:57;5.13;;;3.95;;
75303;SDS011;64042;50.916;6.988;2022-12-07T00:19:22;4.57;;;3.60;;
75303;SDS011;64042;50.916;6.988;2022-12-07T00:21:47;7.07;;;4.00;;
75303;SDS011;64042;50.916;6.988;2022-12-07T00:24:13;5.88;;;4.07;;
75303;SDS011;64042;50.916;6.988;2022-12-07T00:26:38;5.32;;;4.72;;
75303;SDS011;64042;50.916;6.988;2022-12-07T00:29:08;5.68;;;4.32;;
75303;SDS011;64042;50.916;6.988;2022-12-07T00:31:38;4.97;;;4.20;;
75303;SDS011;64042;50.916;6.988;2022-12-07T00:34:04;5.93;;;4.30;;
75303;SDS011;64042;50.916;6.988;2022-12-07T00:36:30;5.68;;;4.65;;
75303;SDS011;64042;50.916;6.988;2022-12-07T00:38:57;5.23;;;3.73;;
75303;SDS011;64042;50.916;6.988;2022-12-07T00:41:23;4.55;;;3.38;;
75303;SDS011;64042;50.916;6.988;2022-12-07T00:43:50;4.93;;;4.15;;
75303;SDS011;64042;50.916;6.988;2022-12-07T00:46:16;4.40;;;4.00;;
75303;SDS011;64042;50.916;6.988;2022-12-07T00:48:41;4.97;;;4.07;;
75303;SDS011;64042;50.916;6.988;2022-12-07T00:51:07;5.63;;;4.00;;
75303;SDS011;64042;50.916;6.988;2022-12-07T00:53:34;5.95;;;4.30;;
75303;SDS011;64042;50.916;6.988;2022-12-07T00:56:06;5.00;;;3.53;;
75303;SDS011;64042;50.916;6.988;2022-12-07T00:58:37;5.47;;;3.55;;
75303;SDS011;64042;50.916;6.988;2022-12-07T01:01:02;4.47;;;3.47;;
75303;SDS011;64042;50.916;6.988;2022-12-07T01:03:29;4.55;;;3.40;;
75303;SDS011;64042;50.916;6.988;2022-12-07T01:05:55;4.22;;;3.42;;
75303;SDS011;64042;50.916;6.988;2022-12-07T01:08:21;4.25;;;3.28;;
75303;SDS011;64042;50.916;6.988;2022-12-07T01:10:47;5.18;;;3.50;;
75303;SDS011;64042;50.916;6.988;2022-12-07T01:13:12;4.65;;;3.70;;
75303;SDS011;64042;50.916;6.988;2022-12-07T01:15:39;5.72;;;4.18;;
75303;SDS011;64042;50.916;6.988;2022-12-07T01:18:05;4.63;;;4.15;;
75303;SDS011;64042;50.916;6.988;2022-12-07T01:20:30;5.55;;;3.70;;
75303;SDS011;64042;50.916;6.988;2022-12-07T01:22:56;4.50;;;4.10;;
75303;SDS011;64042;50.916;6.988;2022-12-07T01:25:21;4.80;;;4.20;;
75303;SDS011;64042;50.916;6.988;2022-12-07T01:27:46;4.77;;;3.87;;
75303;SDS011;64042;50.916;6.988;2022-12-07T01:30:12;4.90;;;4.10;;
75303;SDS011;64042;50.916;6.988;2022-12-07T01:32:37;3.70;;;3.28;;
75303;SDS011;64042;50.916;6.988;2022-12-07T01:35:03;4.85;;;3.45;;
75303;SDS011;64042;50.916;6.988;2022-12-07T01:37:33;5.72;;;3.38;;
75303;SDS011;64042;50.916;6.988;2022-12-07T01:40:02;5.43;;;3.50;;
75303;SDS011;64042;50.916;6.988;2022-12-07T01:42:28;3.80;;;3.33;;
75303;SDS011;64042;50.916;6.988;2022-12-07T01:45:55;4.80;;;4.25;;
75303;SDS011;64042;50.916;6.988;2022-12-07T01:50:30;3.90;;;3.40;;
75303;SDS011;64042;50.916;6.988;2022-12-07T01:52:58;3.63;;;2.95;;
75303;SDS011;64042;50.916;6.988;2022-12-07T01:55:25;4.82;;;4.40;;
75303;SDS011;64042;50.916;6.988;2022-12-07T01:57:52;6.05;;;3.83;;
75303;SDS011;64042;50.916;6.988;2022-12-07T02:00:18;4.07;;;2.92;;
75303;SDS011;64042;50.916;6.988;2022-12-07T02:02:46;4.95;;;4.10;;
75303;SDS011;64042;50.916;6.988;2022-12-07T02:05:14;3.65;;;3.08;;
75303;SDS011;64042;50.916;6.988;2022-12-07T02:07:39;4.18;;;3.13;;
75303;SDS011;64042;50.916;6.988;2022-12-07T02:12:41;3.75;;;3.35;;
75303;SDS011;64042;50.916;6.988;2022-12-07T02:15:07;3.53;;;3.03;;
75303;SDS011;64042;50.916;6.988;2022-12-07T02:31:43;3.42;;;3.13;;
75303;SDS011;64042;50.916;6.988;2022-12-07T02:36:55;3.72;;;3.17;;
75303;SDS011;64042;50.916;6.988;2022-12-07T02:39:25;3.53;;;2.80;;
75303;SDS011;64042;50.916;6.988;2022-12-07T02:41:56;3.78;;;3.17;;
75303;SDS011;64042;50.916;6.988;2022-12-07T02:44:25;2.72;;;2.50;;
75303;SDS011;64042;50.916;6.988;2022-12-07T02:46:58;4.20;;;3.05;;
75303;SDS011;64042;50.916;6.988;2022-12-07T02:49:27;3.45;;;3.15;;
75303;SDS011;64042;50.916;6.988;2022-12-07T02:51:53;3.67;;;3.20;;
75303;SDS011;64042;50.916;6.988;2022-12-07T02:54:19;3.42;;;3.13;;
75303;SDS011;64042;50.916;6.988;2022-12-07T02:56:46;3.92;;;3.15;;
75303;SDS011;64042;50.916;6.988;2022-12-07T03:07:49;3.45;;;2.97;;
75303;SDS011;64042;50.916;6.988;2022-12-07T03:10:36;4.20;;;3.10;;
75303;SDS011;64042;50.916;6.988;2022-12-07T03:13:19;3.72;;;2.83;;
75303;SDS011;64042;50.916;6.988;2022-12-07T03:18:32;3.58;;;2.60;;
75303;SDS011;64042;50.916;6.988;2022-12-07T03:21:02;3.28;;;2.97;;
75303;SDS011;64042;50.916;6.988;2022-12-07T03:23:30;5.28;;;4.05;;
75303;SDS011;64042;50.916;6.988;2022-12-07T03:25:58;3.53;;;3.22;;
75303;SDS011;64042;50.916;6.988;2022-12-07T03:28:27;2.85;;;2.53;;
75303;SDS011;64042;50.916;6.988;2022-12-07T03:31:01;4.05;;;3.55;;
75303;SDS011;64042;50.916;6.988;2022-12-07T03:33:31;3.60;;;2.80;;
75303;SDS011;64042;50.916;6.988;2022-12-07T03:36:08;3.78;;;3.22;;
75303;SDS011;64042;50.916;6.988;2022-12-07T03:38:41;4.03;;;3.05;;
75303;SDS011;64042;50.916;6.988;2022-12-07T03:41:12;3.45;;;3.00;;
75303;SDS011;64042;50.916;6.988;2022-12-07T03:43:40;4.80;;;3.60;;
75303;SDS011;64042;50.916;6.988;2022-12-07T03:48:41;2.88;;;2.60;;
75303;SDS011;64042;50.916;6.988;2022-12-07T03:51:13;3.83;;;3.42;;
75303;SDS011;64042;50.916;6.988;2022-12-07T03:53:53;3.97;;;3.63;;
75303;SDS011;64042;50.916;6.988;2022-12-07T03:56:20;5.18;;;3.83;;
75303;SDS011;64042;50.916;6.988;2022-12-07T03:58:46;2.97;;;2.67;;
75303;SDS011;64042;50.916;6.988;2022-12-07T04:01:11;2.95;;;2.58;;
75303;SDS011;64042;50.916;6.988;2022-12-07T04:03:37;3.38;;;3.05;;
75303;SDS011;64042;50.916;6.988;2022-12-07T04:06:02;3.63;;;2.57;;
75303;SDS011;64042;50.916;6.988;2022-12-07T04:08:27;2.80;;;2.55;;
75303;SDS011;64042;50.916;6.988;2022-12-07T04:10:53;4.20;;;3.13;;
75303;SDS011;64042;50.916;6.988;2022-12-07T04:13:18;3.63;;;3.05;;
75303;SDS011;64042;50.916;6.988;2022-12-07T04:15:43;3.78;;;2.90;;
75303;SDS011;64042;50.916;6.988;2022-12-07T04:18:09;3.73;;;3.10;;
75303;SDS011;64042;50.916;6.988;2022-12-07T04:20:34;2.83;;;2.43;;
75303;SDS011;64042;50.916;6.988;2022-12-07T04:22:59;3.27;;;2.63;;
75303;SDS011;64042;50.916;6.988;2022-12-07T04:25:24;3.55;;;3.20;;
75303;SDS011;64042;50.916;6.988;2022-12-07T04:27:50;3.33;;;2.87;;
75303;SDS011;64042;50.916;6.988;2022-12-07T04:30:15;3.17;;;2.87;;
75303;SDS011;64042;50.916;6.988;2022-12-07T04:32:40;3.20;;;2.95;;
75303;SDS011;64042;50.916;6.988;2022-12-07T04:35:06;3.17;;;2.65;;
75303;SDS011;64042;50.916;6.988;2022-12-07T04:37:32;3.00;;;2.70;;
75303;SDS011;64042;50.916;6.988;2022-12-07T04:39:57;2.47;;;2.28;;
75303;SDS011;64042;50.916;6.988;2022-12-07T04:42:22;3.03;;;2.73;;
75303;SDS011;64042;50.916;6.988;2022-12-07T04:44:47;3.72;;;2.90;;
75303;SDS011;64042;50.916;6.988;2022-12-07T04:47:13;2.88;;;2.67;;
75303;SDS011;64042;50.916;6.988;2022-12-07T04:49:38;3.93;;;2.80;;
75303;SDS011;64042;50.916;6.988;2022-12-07T04:52:03;3.30;;;3.00;;
75303;SDS011;64042;50.916;6.988;2022-12-07T04:54:29;2.67;;;2.40;;
75303;SDS011;64042;50.916;6.988;2022-12-07T04:56:54;3.45;;;3.15;;
75303;SDS011;64042;50.916;6.988;2022-12-07T04:59:19;3.40;;;3.10;;
75303;SDS011;64042;50.916;6.988;2022-12-07T05:01:45;2.92;;;2.60;;
75303;SDS011;64042;50.916;6.988;2022-12-07T05:04:10;3.80;;;3.50;;
75303;SDS011;64042;50.916;6.988;2022-12-07T05:06:36;3.53;;;3.22;;
75303;SDS011;64042;50.916;6.988;2022-12-07T05:09:01;3.40;;;3.10;;
75303;SDS011;64042;50.916;6.988;2022-12-07T05:11:26;2.75;;;2.55;;
75303;SDS011;64042;50.916;6.988;2022-12-07T05:14:09;4.40;;;3.25;;
75303;SDS011;64042;50.916;6.988;2022-12-07T05:16:41;3.38;;;2.53;;
75303;SDS011;64042;50.916;6.988;2022-12-07T05:19:08;4.10;;;2.42;;
75303;SDS011;64042;50.916;6.988;2022-12-07T05:21:33;2.42;;;2.20;;
75303;SDS011;64042;50.916;6.988;2022-12-07T05:23:59;3.55;;;3.25;;
75303;SDS011;64042;50.916;6.988;2022-12-07T05:26:24;4.13;;;3.83;;
75303;SDS011;64042;50.916;6.988;2022-12-07T05:28:51;3.60;;;3.25;;
75303;SDS011;64042;50.916;6.988;2022-12-07T05:31:17;2.85;;;2.40;;
75303;SDS011;64042;50.916;6.988;2022-12-07T05:33:42;2.97;;;2.47;;
75303;SDS011;64042;50.916;6.988;2022-12-07T05:36:08;2.80;;;2.60;;
75303;SDS011;64042;50.916;6.988;2022-12-07T05:38:33;2.73;;;2.53;;
75303;SDS011;64042;50.916;6.988;2022-12-07T05:41:02;3.13;;;2.70;;
75303;SDS011;64042;50.916;6.988;2022-12-07T05:43:28;2.75;;;2.50;;
75303;SDS011;64042;50.916;6.988;2022-12-07T05:45:54;2.80;;;2.60;;
75303;SDS011;64042;50.916;6.988;2022-12-07T05:48:19;4.38;;;3.03;;
75303;SDS011;64042;50.916;6.988;2022-12-07T05:50:47;3.10;;;2.83;;
75303;SDS011;64042;50.916;6.988;2022-12-07T05:53:12;3.15;;;2.60;;
75303;SDS011;64042;50.916;6.988;2022-12-07T05:55:38;2.70;;;2.27;;
75303;SDS011;64042;50.916;6.988;2022-12-07T05:58:03;2.87;;;2.67;;
75303;SDS011;64042;50.916;6.988;2022-12-07T06:03:15;4.10;;;3.08;;
75303;SDS011;64042;50.916;6.988;2022-12-07T06:05:40;2.75;;;2.55;;
75303;SDS011;64042;50.916;6.988;2022-12-07T06:08:06;2.58;;;2.38;;
75303;SDS011;64042;50.916;6.988;2022-12-07T06:10:31;2.73;;;2.53;;
75303;SDS011;64042;50.916;6.988;2022-12-07T06:12:56;3.13;;;2.93;;
75303;SDS011;64042;50.916;6.988;2022-12-07T06:15:22;3.63;;;3.33;;
75303;SDS011;64042;50.916;6.988;2022-12-07T06:17:48;2.72;;;2.53;;
75303;SDS011;64042;50.916;6.988;2022-12-07T06:20:13;3.38;;;2.85;;
75303;SDS011;64042;50.916;6.988;2022-12-07T06:22:38;2.70;;;2.50;;
75303;SDS011;64042;50.916;6.988;2022-12-07T06:25:04;3.00;;;2.70;;
75303;SDS011;64042;50.916;6.988;2022-12-07T06:27:29;3.15;;;2.58;;
75303;SDS011;64042;50.916;6.988;2022-12-07T06:29:54;2.97;;;2.35;;
75303;SDS011;64042;50.916;6.988;2022-12-07T06:32:20;2.60;;;2.40;;
75303;SDS011;64042;50.916;6.988;2022-12-07T06:34:45;2.53;;;2.33;;
75303;SDS011;64042;50.916;6.988;2022-12-07T06:37:12;3.20;;;2.97;;
75303;SDS011;64042;50.916;6.988;2022-12-07T06:39:37;2.60;;;2.40;;
75303;SDS011;64042;50.916;6.988;2022-12-07T06:42:03;3.30;;;3.00;;
75303;SDS011;64042;50.916;6.988;2022-12-07T06:44:29;3.03;;;2.67;;
75303;SDS011;64042;50.916;6.988;2022-12-07T06:46:55;3.20;;;2.97;;
75303;SDS011;64042;50.916;6.988;2022-12-07T06:49:20;2.95;;;2.30;;
75303;SDS011;64042;50.916;6.988;2022-12-07T06:51:45;2.95;;;2.60;;
75303;SDS011;64042;50.916;6.988;2022-12-07T06:54:11;2.35;;;2.15;;
75303;SDS011;64042;50.916;6.988;2022-12-07T06:56:37;3.25;;;2.92;;
75303;SDS011;64042;50.916;6.988;2022-12-07T06:59:03;2.70;;;2.50;;
75303;SDS011;64042;50.916;6.988;2022-12-07T07:01:30;2.60;;;2.40;;
75303;SDS011;64042;50.916;6.988;2022-12-07T07:03:55;2.55;;;2.35;;
75303;SDS011;64042;50.916;6.988;2022-12-07T07:06:21;2.92;;;2.45;;
75303;SDS011;64042;50.916;6.988;2022-12-07T07:08:46;3.10;;;2.30;;
75303;SDS011;64042;50.916;6.988;2022-12-07T07:11:11;2.43;;;2.23;;
75303;SDS011;64042;50.916;6.988;2022-12-07T07:13:37;2.60;;;2.40;;
75303;SDS011;64042;50.916;6.988;2022-12-07T07:16:02;2.70;;;2.50;;
75303;SDS011;64042;50.916;6.988;2022-12-07T07:18:28;3.72;;;3.35;;
75303;SDS011;64042;50.916;6.988;2022-12-07T07:20:53;2.67;;;2.45;;
75303;SDS011;64042;50.916;6.988;2022-12-07T07:23:19;2.55;;;2.35;;
75303;SDS011;64042;50.916;6.988;2022-12-07T07:25:45;2.40;;;2.13;;
75303;SDS011;64042;50.916;6.988;2022-12-07T07:28:10;3.25;;;2.78;;
75303;SDS011;64042;50.916;6.988;2022-12-07T07:30:36;2.78;;;2.58;;
75303;SDS011;64042;50.916;6.988;2022-12-07T07:33:01;2.75;;;2.55;;
75303;SDS011;64042;50.916;6.988;2022-12-07T07:35:27;3.42;;;2.58;;
75303;SDS011;64042;50.916;6.988;2022-12-07T07:37:54;3.13;;;2.85;;
75303;SDS011;64042;50.916;6.988;2022-12-07T07:40:19;2.97;;;2.17;;
75303;SDS011;64042;50.916;6.988;2022-12-07T07:42:48;2.60;;;2.40;;
75303;SDS011;64042;50.916;6.988;2022-12-07T07:45:16;3.30;;;3.03;;
75303;SDS011;64042;50.916;6.988;2022-12-07T07:47:42;3.15;;;2.35;;
75303;SDS011;64042;50.916;6.988;2022-12-07T07:50:07;2.67;;;2.43;;
75303;SDS011;64042;50.916;6.988;2022-12-07T07:52:33;2.90;;;2.58;;
75303;SDS011;64042;50.916;6.988;2022-12-07T07:54:58;3.08;;;2.88;;
75303;SDS011;64042;50.916;6.988;2022-12-07T07:57:23;2.45;;;2.15;;
75303;SDS011;64042;50.916;6.988;2022-12-07T07:59:49;3.60;;;2.00;;
75303;SDS011;64042;50.916;6.988;2022-12-07T08:02:15;3.03;;;2.83;;
75303;SDS011;64042;50.916;6.988;2022-12-07T08:04:41;5.45;;;4.93;;
75303;SDS011;64042;50.916;6.988;2022-12-07T08:07:07;14.90;;;12.43;;
75303;SDS011;64042;50.916;6.988;2022-12-07T08:09:32;13.50;;;11.73;;
75303;SDS011;64042;50.916;6.988;2022-12-07T08:11:57;11.53;;;9.40;;
75303;SDS011;64042;50.916;6.988;2022-12-07T08:14:23;13.77;;;11.60;;
75303;SDS011;64042;50.916;6.988;2022-12-07T08:16:49;11.68;;;10.27;;
75303;SDS011;64042;50.916;6.988;2022-12-07T08:19:14;12.13;;;9.77;;
75303;SDS011;64042;50.916;6.988;2022-12-07T08:21:39;11.65;;;10.35;;
75303;SDS011;64042;50.916;6.988;2022-12-07T08:24:05;12.27;;;10.75;;
75303;SDS011;64042;50.916;6.988;2022-12-07T08:26:30;11.15;;;9.43;;
75303;SDS011;64042;50.916;6.988;2022-12-07T08:28:55;13.33;;;10.17;;
75303;SDS011;64042;50.916;6.988;2022-12-07T08:31:21;12.18;;;9.70;;
75303;SDS011;64042;50.916;6.988;2022-12-07T08:33:46;11.98;;;10.15;;
75303;SDS011;64042;50.916;6.988;2022-12-07T08:36:12;11.05;;;8.95;;
75303;SDS011;64042;50.916;6.988;2022-12-07T08:38:38;11.98;;;10.75;;
75303;SDS011;64042;50.916;6.988;2022-12-07T08:41:05;11.63;;;9.63;;
75303;SDS011;64042;50.916;6.988;2022-12-07T08:43:31;12.63;;;10.20;;
75303;SDS011;64042;50.916;6.988;2022-12-07T08:46:04;13.65;;;11.65;;
75303;SDS011;64042;50.916;6.988;2022-12-07T08:51:13;10.90;;;9.70;;
75303;SDS011;64042;50.916;6.988;2022-12-07T08:53:39;12.40;;;10.18;;
75303;SDS011;64042;50.916;6.988;2022-12-07T08:56:04;12.82;;;10.20;;
75303;SDS011;64042;50.916;6.988;2022-12-07T08:58:31;11.65;;;10.40;;
75303;SDS011;64042;50.916;6.988;2022-12-07T09:00:57;11.70;;;9.10;;
75303;SDS011;64042;50.916;6.988;2022-12-07T09:03:22;11.10;;;9.33;;
75303;SDS011;64042;50.916;6.988;2022-12-07T09:05:48;11.25;;;9.77;;
75303;SDS011;64042;50.916;6.988;2022-12-07T09:08:13;11.18;;;9.15;;
75303;SDS011;64042;50.916;6.988;2022-12-07T09:10:38;10.93;;;9.82;;
75303;SDS011;64042;50.916;6.988;2022-12-07T09:13:04;10.98;;;9.80;;
75303;SDS011;64042;50.916;6.988;2022-12-07T09:15:29;10.30;;;8.53;;
75303;SDS011;64042;50.916;6.988;2022-12-07T09:17:55;11.30;;;9.13;;
75303;SDS011;64042;50.916;6.988;2022-12-07T09:20:20;10.45;;;8.65;;
75303;SDS011;64042;50.916;6.988;2022-12-07T09:22:45;9.68;;;8.55;;
75303;SDS011;64042;50.916;6.988;2022-12-07T09:25:11;9.68;;;8.68;;
75303;SDS011;64042;50.916;6.988;2022-12-07T09:27:37;10.03;;;9.00;;
75303;SDS011;64042;50.916;6.988;2022-12-07T09:30:02;10.70;;;9.60;;
75303;SDS011;64042;50.916;6.988;2022-12-07T09:32:29;10.07;;;8.70;;
75303;SDS011;64042;50.916;6.988;2022-12-07T09:34:54;9.75;;;8.68;;
75303;SDS011;64042;50.916;6.988;2022-12-07T09:37:20;9.85;;;8.43;;
75303;SDS011;64042;50.916;6.988;2022-12-07T09:39:45;10.30;;;9.13;;
75303;SDS011;64042;50.916;6.988;2022-12-07T09:42:11;9.10;;;8.20;;
75303;SDS011;64042;50.916;6.988;2022-12-07T09:44:51;9.60;;;8.02;;
75303;SDS011;64042;50.916;6.988;2022-12-07T09:47:16;9.70;;;7.68;;
75303;SDS011;64042;50.916;6.988;2022-12-07T09:49:41;10.63;;;8.10;;
75303;SDS011;64042;50.916;6.988;2022-12-07T09:54:33;10.13;;;7.80;;
75303;SDS011;64042;50.916;6.988;2022-12-07T09:57:00;10.43;;;9.43;;
75303;SDS011;64042;50.916;6.988;2022-12-07T09:59:26;9.33;;;8.43;;
75303;SDS011;64042;50.916;6.988;2022-12-07T10:01:51;10.82;;;9.20;;
75303;SDS011;64042;50.916;6.988;2022-12-07T10:04:21;10.73;;;8.93;;
75303;SDS011;64042;50.916;6.988;2022-12-07T10:06:47;11.73;;;8.85;;
75303;SDS011;64042;50.916;6.988;2022-12-07T10:09:14;9.85;;;8.30;;
75303;SDS011;64042;50.916;6.988;2022-12-07T10:14:36;9.57;;;8.13;;
75303;SDS011;64042;50.916;6.988;2022-12-07T10:17:20;10.00;;;8.65;;
75303;SDS011;64042;50.916;6.988;2022-12-07T10:20:15;10.68;;;8.98;;
75303;SDS011;64042;50.916;6.988;2022-12-07T10:22:57;9.25;;;7.50;;
75303;SDS011;64042;50.916;6.988;2022-12-07T10:25:31;10.48;;;9.38;;
75303;SDS011;64042;50.916;6.988;2022-12-07T10:27:58;9.55;;;8.55;;
75303;SDS011;64042;50.916;6.988;2022-12-07T10:30:25;8.57;;;7.40;;
75303;SDS011;64042;50.916;6.988;2022-12-07T10:32:50;9.60;;;7.50;;
75303;SDS011;64042;50.916;6.988;2022-12-07T10:35:20;8.30;;;7.47;;
75303;SDS011;64042;50.916;6.988;2022-12-07T10:37:46;8.73;;;7.82;;
75303;SDS011;64042;50.916;6.988;2022-12-07T10:43:05;8.48;;;6.60;;
75303;SDS011;64042;50.916;6.988;2022-12-07T10:45:54;8.25;;;7.05;;
75303;SDS011;64042;50.916;6.988;2022-12-07T10:51:27;8.13;;;6.68;;
75303;SDS011;64042;50.916;6.988;2022-12-07T10:56:59;7.40;;;6.40;;
75303;SDS011;64042;50.916;6.988;2022-12-07T11:16:23;6.97;;;5.82;;
75303;SDS011;64042;50.916;6.988;2022-12-07T11:21:45;6.82;;;5.82;;
75303;SDS011;64042;50.916;6.988;2022-12-07T11:24:16;6.00;;;5.43;;
75303;SDS011;64042;50.916;6.988;2022-12-07T11:32:22;6.90;;;5.40;;
75303;SDS011;64042;50.916;6.988;2022-12-07T11:37:47;8.27;;;5.70;;
75303;SDS011;64042;50.916;6.988;2022-12-07T11:40:36;5.40;;;4.60;;
75303;SDS011;64042;50.916;6.988;2022-12-07T11:43:24;6.38;;;4.90;;
75303;SDS011;64042;50.916;6.988;2022-12-07T11:45:57;5.50;;;4.82;;
75303;SDS011;64042;50.916;6.988;2022-12-07T11:48:48;7.07;;;5.13;;
75303;SDS011;64042;50.916;6.988;2022-12-07T11:51:18;6.57;;;5.15;;
75303;SDS011;64042;50.916;6.988;2022-12-07T11:56:22;6.22;;;5.25;;
75303;SDS011;64042;50.916;6.988;2022-12-07T11:58:55;5.75;;;4.68;;
75303;SDS011;64042;50.916;6.988;2022-12-07T12:04:13;5.43;;;4.57;;
75303;SDS011;64042;50.916;6.988;2022-12-07T12:06:44;5.90;;;4.53;;
75303;SDS011;64042;50.916;6.988;2022-12-07T12:22:39;4.80;;;4.30;;
75303;SDS011;64042;50.916;6.988;2022-12-07T12:25:11;4.85;;;4.05;;
75303;SDS011;64042;50.916;6.988;2022-12-07T12:27:44;4.93;;;4.40;;
75303;SDS011;64042;50.916;6.988;2022-12-07T12:30:25;5.00;;;4.57;;
75303;SDS011;64042;50.916;6.988;2022-12-07T12:33:14;5.85;;;4.72;;
75303;SDS011;64042;50.916;6.988;2022-12-07T12:35:48;5.05;;;4.50;;
75303;SDS011;64042;50.916;6.988;2022-12-07T12:54:35;4.47;;;4.00;;
75303;SDS011;64042;50.916;6.988;2022-12-07T13:10:54;3.83;;;3.42;;
75303;SDS011;64042;50.916;6.988;2022-12-07T13:15:43;6.05;;;3.60;;
75303;SDS011;64042;50.916;6.988;2022-12-07T13:18:23;5.18;;;3.10;;
75303;SDS011;64042;50.916;6.988;2022-12-07T13:20:59;5.47;;;3.72;;
75303;SDS011;64042;50.916;6.988;2022-12-07T13:28:46;4.95;;;4.13;;
75303;SDS011;64042;50.916;6.988;2022-12-07T13:31:23;3.95;;;3.35;;
75303;SDS011;64042;50.916;6.988;2022-12-07T13:33:57;3.63;;;3.33;;
75303;SDS011;64042;50.916;6.988;2022-12-07T13:36:24;4.00;;;3.20;;
75303;SDS011;64042;50.916;6.988;2022-12-07T13:41:21;4.03;;;3.38;;
75303;SDS011;64042;50.916;6.988;2022-12-07T13:43:49;4.15;;;3.70;;
75303;SDS011;64042;50.916;6.988;2022-12-07T13:46:17;3.85;;;2.97;;
75303;SDS011;64042;50.916;6.988;2022-12-07T13:48:48;4.57;;;3.75;;
75303;SDS011;64042;50.916;6.988;2022-12-07T13:51:19;4.28;;;2.92;;
75303;SDS011;64042;50.916;6.988;2022-12-07T13:53:47;4.97;;;3.53;;
75303;SDS011;64042;50.916;6.988;2022-12-07T13:56:14;4.25;;;3.45;;
75303;SDS011;64042;50.916;6.988;2022-12-07T13:58:41;3.50;;;3.20;;
75303;SDS011;64042;50.916;6.988;2022-12-07T14:01:06;4.43;;;3.63;;
75303;SDS011;64042;50.916;6.988;2022-12-07T14:03:32;4.05;;;3.22;;
75303;SDS011;64042;50.916;6.988;2022-12-07T14:06:03;3.70;;;3.38;;
75303;SDS011;64042;50.916;6.988;2022-12-07T14:08:31;4.07;;;3.22;;
75303;SDS011;64042;50.916;6.988;2022-12-07T14:10:56;3.63;;;3.30;;
75303;SDS011;64042;50.916;6.988;2022-12-07T14:15:59;5.53;;;4.35;;
75303;SDS011;64042;50.916;6.988;2022-12-07T14:18:29;5.70;;;3.42;;
75303;SDS011;64042;50.916;6.988;2022-12-07T14:21:15;3.88;;;3.30;;
75303;SDS011;64042;50.916;6.988;2022-12-07T14:23:42;3.10;;;2.55;;
75303;SDS011;64042;50.916;6.988;2022-12-07T14:26:15;9.05;;;3.00;;
75303;SDS011;64042;50.916;6.988;2022-12-07T14:28:44;4.28;;;3.53;;
75303;SDS011;64042;50.916;6.988;2022-12-07T14:31:13;3.50;;;3.20;;
75303;SDS011;64042;50.916;6.988;2022-12-07T14:33:44;4.13;;;3.47;;
75303;SDS011;64042;50.916;6.988;2022-12-07T14:36:11;6.32;;;4.88;;
75303;SDS011;64042;50.916;6.988;2022-12-07T14:38:37;51.72;;;27.42;;
75303;SDS011;64042;50.916;6.988;2022-12-07T14:41:02;92.78;;;43.13;;
75303;SDS011;64042;50.916;6.988;2022-12-07T14:43:47;78.55;;;37.92;;
75303;SDS011;64042;50.916;6.988;2022-12-07T14:46:13;71.10;;;36.80;;
75303;SDS011;64042;50.916;6.988;2022-12-07T14:48:38;72.40;;;35.83;;
75303;SDS011;64042;50.916;6.988;2022-12-07T14:51:03;65.63;;;33.13;;
75303;SDS011;64042;50.916;6.988;2022-12-07T14:53:37;65.38;;;34.78;;
75303;SDS011;64042;50.916;6.988;2022-12-07T14:56:04;72.05;;;35.20;;
75303;SDS011;64042;50.916;6.988;2022-12-07T14:58:30;79.20;;;38.65;;
75303;SDS011;64042;50.916;6.988;2022-12-07T15:00:57;84.88;;;39.00;;
75303;SDS011;64042;50.916;6.988;2022-12-07T15:03:22;71.63;;;37.25;;
75303;SDS011;64042;50.916;6.988;2022-12-07T15:05:47;79.87;;;38.73;;
75303;SDS011;64042;50.916;6.988;2022-12-07T15:08:13;74.72;;;36.97;;
75303;SDS011;64042;50.916;6.988;2022-12-07T15:10:38;74.25;;;37.05;;
75303;SDS011;64042;50.916;6.988;2022-12-07T15:13:05;74.97;;;38.88;;
75303;SDS011;64042;50.916;6.988;2022-12-07T15:15:50;76.18;;;35.28;;
75303;SDS011;64042;50.916;6.988;2022-12-07T15:18:16;76.75;;;35.35;;
75303;SDS011;64042;50.916;6.988;2022-12-07T15:20:42;71.47;;;35.97;;
75303;SDS011;64042;50.916;6.988;2022-12-07T15:23:08;73.18;;;36.42;;
75303;SDS011;64042;50.916;6.988;2022-12-07T15:25:33;76.18;;;35.65;;
75303;SDS011;64042;50.916;6.988;2022-12-07T15:27:58;77.38;;;36.78;;
75303;SDS011;64042;50.916;6.988;2022-12-07T15:30:24;72.78;;;34.30;;
75303;SDS011;64042;50.916;6.988;2022-12-07T15:32:56;86.65;;;44.97;;
75303;SDS011;64042;50.916;6.988;2022-12-07T15:35:21;74.90;;;36.10;;
75303;SDS011;64042;50.916;6.988;2022-12-07T15:37:47;75.20;;;40.37;;
75303;SDS011;64042;50.916;6.988;2022-12-07T15:40:12;75.07;;;36.50;;
75303;SDS011;64042;50.916;6.988;2022-12-07T15:42:38;73.78;;;35.42;;
75303;SDS011;64042;50.916;6.988;2022-12-07T15:45:05;74.78;;;38.88;;
75303;SDS011;64042;50.916;6.988;2022-12-07T15:47:33;70.28;;;36.50;;
75303;SDS011;64042;50.916;6.988;2022-12-07T15:50:00;73.72;;;35.95;;
75303;SDS011;64042;50.916;6.988;2022-12-07T15:52:26;74.03;;;40.78;;
75303;SDS011;64042;50.916;6.988;2022-12-07T15:54:52;76.68;;;34.15;;
75303;SDS011;64042;50.916;6.988;2022-12-07T15:57:17;68.38;;;33.53;;
75303;SDS011;64042;50.916;6.988;2022-12-07T15:59:42;67.45;;;37.42;;
75303;SDS011;64042;50.916;6.988;2022-12-07T16:02:08;68.20;;;36.80;;
75303;SDS011;64042;50.916;6.988;2022-12-07T16:04:35;70.40;;;37.55;;
75303;SDS011;64042;50.916;6.988;2022-12-07T16:07:00;73.75;;;32.15;;
75303;SDS011;64042;50.916;6.988;2022-12-07T16:09:26;65.63;;;33.63;;
75303;SDS011;64042;50.916;6.988;2022-12-07T16:11:51;66.22;;;31.63;;
75303;SDS011;64042;50.916;6.988;2022-12-07T16:14:17;66.40;;;36.20;;
75303;SDS011;64042;50.916;6.988;2022-12-07T16:16:42;67.43;;;38.38;;
75303;SDS011;64042;50.916;6.988;2022-12-07T16:19:08;65.60;;;35.58;;
75303;SDS011;64042;50.916;6.988;2022-12-07T16:21:33;59.28;;;30.75;;
75303;SDS011;64042;50.916;6.988;2022-12-07T16:24:00;63.40;;;31.38;;
75303;SDS011;64042;50.916;6.988;2022-12-07T16:26:25;60.47;;;32.45;;
75303;SDS011;64042;50.916;6.988;2022-12-07T16:28:51;56.38;;;33.22;;
75303;SDS011;64042;50.916;6.988;2022-12-07T16:31:18;56.45;;;32.00;;
75303;SDS011;64042;50.916;6.988;2022-12-07T16:33:44;59.90;;;33.70;;
75303;SDS011;64042;50.916;6.988;2022-12-07T16:36:11;55.17;;;28.83;;
75303;SDS011;64042;50.916;6.988;2022-12-07T16:38:38;53.88;;;27.13;;
75303;SDS011;64042;50.916;6.988;2022-12-07T16:41:04;57.85;;;31.88;;
75303;SDS011;64042;50.916;6.988;2022-12-07T16:43:30;55.10;;;30.60;;
75303;SDS011;64042;50.916;6.988;2022-12-07T16:45:56;55.17;;;28.33;;
75303;SDS011;64042;50.916;6.988;2022-12-07T16:48:21;50.90;;;27.07;;
75303;SDS011;64042;50.916;6.988;2022-12-07T16:50:46;51.22;;;31.85;;
75303;SDS011;64042;50.916;6.988;2022-12-07T16:53:12;54.70;;;26.52;;
75303;SDS011;64042;50.916;6.988;2022-12-07T16:55:39;48.70;;;25.35;;
75303;SDS011;64042;50.916;6.988;2022-12-07T16:58:05;49.92;;;30.40;;
75303;SDS011;64042;50.916;6.988;2022-12-07T17:00:31;50.80;;;27.60;;
75303;SDS011;64042;50.916;6.988;2022-12-07T17:02:56;51.10;;;27.65;;
75303;SDS011;64042;50.916;6.988;2022-12-07T17:05:22;44.95;;;24.33;;
75303;SDS011;64042;50.916;6.988;2022-12-07T17:07:49;49.40;;;26.67;;
75303;SDS011;64042;50.916;6.988;2022-12-07T17:10:15;52.00;;;29.20;;